Time;durP1;ratioP1;P1;durP2;ratioP2;P2;SDS_P1;SDS_P2;PMS_P1;PMS_P2;Temp;Humidity;BMP_temperature;BMP_pressure;BME280_temperature;BME280_humidity;BME280_pressure;Samples;Min_cycle;Max_cycle;Signal;HPM_P1;HPM_P2
2021/04/11 00:00:34;;;;;;;0.00;0.00;;;;;;;;;;5045857;28;20194;-59
2021/04/11 00:03:02;;;;;;;0.30;0.30;;;;;;;;;;5056622;28;20171;-58
2021/04/11 00:05:33;;;;;;;0.53;0.53;;;;;;;;;;5051617;28;20175;-59
2021/04/11 00:08:00;;;;;;;2.33;0.43;;;;;;;;;;5050955;28;20306;-59
2021/04/11 00:10:29;;;;;;;0.00;0.00;;;;;;;;;;5054936;28;20226;-59
2021/04/11 00:13:00;;;;;;;0.50;0.50;;;;;;;;;;5054731;28;20183;-59
2021/04/11 00:15:28;;;;;;;0.00;0.00;;;;;;;;;;5056097;28;20230;-59
2021/04/11 00:17:54;;;;;;;0.03;0.03;;;;;;;;;;5053696;28;20179;-59
2021/04/11 00:20:21;;;;;;;0.00;0.00;;;;;;;;;;5058189;28;20847;-59
2021/04/11 00:22:47;;;;;;;0.00;0.00;;;;;;;;;;5052780;28;20241;-59
2021/04/11 00:25:19;;;;;;;0.67;0.20;;;;;;;;;;5054764;28;20265;-59
2021/04/11 00:27:47;;;;;;;0.60;0.60;;;;;;;;;;5053368;28;20183;-59
2021/04/11 00:30:14;;;;;;;0.30;0.30;;;;;;;;;;5052803;28;20217;-58
2021/04/11 00:32:41;;;;;;;1.70;0.57;;;;;;;;;;5056652;28;20722;-58
2021/04/11 00:35:11;;;;;;;0.00;0.00;;;;;;;;;;5058871;28;20205;-59
2021/04/11 00:37:37;;;;;;;1.30;1.20;;;;;;;;;;5064508;28;20183;-58
2021/04/11 00:40:08;;;;;;;0.00;0.00;;;;;;;;;;5061304;28;20198;-58
2021/04/11 00:42:39;;;;;;;0.47;0.47;;;;;;;;;;5056321;28;21051;-58
2021/04/11 00:45:12;;;;;;;0.00;0.00;;;;;;;;;;5053891;28;20179;-57
2021/04/11 00:47:38;;;;;;;0.20;0.20;;;;;;;;;;5062625;28;20174;-58
2021/04/11 00:50:07;;;;;;;0.23;0.23;;;;;;;;;;5052646;28;20187;-58
2021/04/11 00:52:34;;;;;;;0.70;0.70;;;;;;;;;;5055009;28;20178;-54
2021/04/11 00:55:00;;;;;;;2.43;1.20;;;;;;;;;;5057705;28;20217;-58
2021/04/11 00:57:28;;;;;;;0.43;0.43;;;;;;;;;;5053192;28;20203;-59
2021/04/11 00:59:55;;;;;;;0.73;0.73;;;;;;;;;;5056098;28;20175;-58
2021/04/11 01:02:24;;;;;;;30.77;0.83;;;;;;;;;;5056207;28;20190;-59
2021/04/11 01:04:51;;;;;;;0.33;0.33;;;;;;;;;;5051166;28;20214;-58
2021/04/11 01:07:17;;;;;;;0.40;0.40;;;;;;;;;;5053639;28;20272;-58
2021/04/11 01:09:47;;;;;;;0.20;0.07;;;;;;;;;;5052561;28;20653;-59
2021/04/11 01:12:18;;;;;;;0.00;0.00;;;;;;;;;;5055106;28;20688;-59
2021/04/11 01:14:45;;;;;;;0.93;0.87;;;;;;;;;;5056847;28;20574;-59
2021/04/11 01:17:16;;;;;;;0.87;0.83;;;;;;;;;;5052813;28;20261;-59
2021/04/11 01:19:43;;;;;;;2.53;1.80;;;;;;;;;;5058136;28;20191;-59
2021/04/11 01:22:18;;;;;;;0.00;0.00;;;;;;;;;;5058833;28;20162;-59
2021/04/11 01:24:50;;;;;;;0.10;0.10;;;;;;;;;;5054163;28;20179;-59
2021/04/11 01:27:19;;;;;;;0.70;0.70;;;;;;;;;;5053365;28;20185;-59
2021/04/11 01:29:46;;;;;;;0.73;0.30;;;;;;;;;;5050066;28;20226;-59
2021/04/11 01:32:14;;;;;;;0.83;0.30;;;;;;;;;;5056185;28;20190;-59
2021/04/11 01:34:41;;;;;;;1.30;1.13;;;;;;;;;;5054698;28;20622;-60
2021/04/11 01:37:09;;;;;;;3.10;0.73;;;;;;;;;;5056185;28;20551;-59
2021/04/11 01:39:38;;;;;;;0.00;0.00;;;;;;;;;;5047623;28;20190;-59
2021/04/11 01:42:07;;;;;;;0.50;0.50;;;;;;;;;;5055142;28;20792;-61
2021/04/11 01:44:37;;;;;;;2.93;0.77;;;;;;;;;;5056794;28;20265;-58
2021/04/11 01:47:04;;;;;;;1.33;0.60;;;;;;;;;;5056699;28;20178;-58
2021/04/11 01:49:31;;;;;;;0.67;0.67;;;;;;;;;;5056237;28;20187;-59
2021/04/11 01:52:03;;;;;;;0.27;0.27;;;;;;;;;;5059857;28;20267;-59
2021/04/11 01:54:32;;;;;;;0.83;0.40;;;;;;;;;;5053516;28;20202;-59
2021/04/11 01:57:04;;;;;;;0.80;0.80;;;;;;;;;;5055958;28;20264;-59
2021/04/11 01:59:31;;;;;;;0.20;0.20;;;;;;;;;;5055842;28;20999;-57
2021/04/11 02:01:58;;;;;;;41.93;2.00;;;;;;;;;;5055437;28;20282;-58
2021/04/11 02:04:24;;;;;;;0.00;0.00;;;;;;;;;;5052365;28;20193;-57
2021/04/11 02:06:53;;;;;;;3.23;1.97;;;;;;;;;;5057268;28;20189;-58
2021/04/11 02:09:21;;;;;;;0.87;0.53;;;;;;;;;;5055372;28;20175;-57
2021/04/11 02:11:48;;;;;;;1.40;1.13;;;;;;;;;;5060536;28;20274;-57
2021/04/11 02:14:15;;;;;;;0.00;0.00;;;;;;;;;;5055209;28;20179;-57
2021/04/11 02:16:42;;;;;;;0.77;0.50;;;;;;;;;;5051526;28;20230;-57
2021/04/11 02:19:20;;;;;;;0.00;0.00;;;;;;;;;;5056962;28;20784;-58
2021/04/11 02:21:48;;;;;;;1.50;0.83;;;;;;;;;;5058877;28;20178;-60
2021/04/11 02:24:15;;;;;;;1.50;0.70;;;;;;;;;;5067948;28;20182;-60
2021/04/11 02:26:42;;;;;;;2.50;2.30;;;;;;;;;;5053474;28;20536;-60
2021/04/11 02:29:10;;;;;;;4.43;3.17;;;;;;;;;;5067781;28;20643;-60
2021/04/11 02:31:37;;;;;;;1.30;1.20;;;;;;;;;;5060367;28;20264;-60
2021/04/11 02:34:05;;;;;;;1.20;1.10;;;;;;;;;;5060046;28;20201;-60
2021/04/11 02:36:58;;;;;;;0.23;0.23;;;;;;;;;;5060659;28;20734;-60
2021/04/11 02:39:27;;;;;;;1.67;0.40;;;;;;;;;;5057769;28;20199;-60
2021/04/11 02:41:54;;;;;;;0.10;0.10;;;;;;;;;;5059032;28;20550;-60
2021/04/11 02:44:21;;;;;;;0.73;0.53;;;;;;;;;;5064399;28;20174;-59
2021/04/11 02:46:48;;;;;;;15.47;1.53;;;;;;;;;;5064023;28;20187;-59
2021/04/11 02:49:18;;;;;;;0.93;0.67;;;;;;;;;;5063493;28;20190;-55
2021/04/11 02:51:45;;;;;;;0.30;0.20;;;;;;;;;;5062381;28;20274;-54
2021/04/11 02:54:14;;;;;;;1.20;1.20;;;;;;;;;;5065575;28;20186;-55
2021/04/11 02:56:41;;;;;;;0.00;0.00;;;;;;;;;;5059684;28;20206;-54
2021/04/11 02:59:08;;;;;;;0.73;0.67;;;;;;;;;;5061523;28;20185;-54
2021/04/11 03:01:39;;;;;;;7.03;2.47;;;;;;;;;;5062000;28;20709;-51
2021/04/11 03:04:06;;;;;;;0.33;0.33;;;;;;;;;;5059792;28;20270;-54
2021/04/11 03:06:34;;;;;;;0.00;0.00;;;;;;;;;;5060087;28;20527;-54
2021/04/11 03:09:04;;;;;;;0.93;0.67;;;;;;;;;;5060276;28;20631;-53
2021/04/11 03:11:33;;;;;;;0.30;0.30;;;;;;;;;;5059270;28;20204;-53
2021/04/11 03:14:01;;;;;;;0.43;0.43;;;;;;;;;;5059923;28;20286;-55
2021/04/11 03:16:29;;;;;;;2.73;1.30;;;;;;;;;;5059112;28;20248;-55
2021/04/11 03:18:57;;;;;;;0.40;0.40;;;;;;;;;;5059663;28;20179;-55
2021/04/11 03:21:25;;;;;;;4.70;1.20;;;;;;;;;;5059850;28;20183;-53
2021/04/11 03:23:52;;;;;;;2.27;1.60;;;;;;;;;;5062138;28;20175;-54
2021/04/11 03:26:26;;;;;;;1.37;1.27;;;;;;;;;;5063709;28;20186;-55
2021/04/11 03:28:57;;;;;;;0.00;0.00;;;;;;;;;;5059829;28;20251;-52
2021/04/11 03:31:28;;;;;;;0.40;0.40;;;;;;;;;;5062237;28;20191;-55
2021/04/11 03:33:57;;;;;;;0.43;0.43;;;;;;;;;;5064770;28;20906;-53
2021/04/11 03:36:25;;;;;;;1.10;0.53;;;;;;;;;;5072046;28;20271;-52
2021/04/11 03:38:53;;;;;;;0.10;0.10;;;;;;;;;;5064418;28;20190;-55
2021/04/11 03:41:21;;;;;;;0.20;0.20;;;;;;;;;;5062567;28;20174;-53
2021/04/11 03:43:52;;;;;;;1.90;1.20;;;;;;;;;;5064598;28;20178;-55
2021/04/11 03:46:23;;;;;;;1.03;0.63;;;;;;;;;;5058259;28;20202;-52
2021/04/11 03:48:58;;;;;;;0.40;0.40;;;;;;;;;;5064937;28;20185;-54
2021/04/11 03:51:27;;;;;;;0.10;0.10;;;;;;;;;;5064312;28;20197;-54
2021/04/11 03:53:57;;;;;;;0.00;0.00;;;;;;;;;;5061412;28;20526;-56
2021/04/11 03:56:27;;;;;;;2.10;1.40;;;;;;;;;;5062918;28;20214;-54
2021/04/11 03:58:57;;;;;;;0.13;0.13;;;;;;;;;;5060637;28;20175;-51
2021/04/11 04:01:26;;;;;;;0.70;0.70;;;;;;;;;;5062554;28;20206;-53
2021/04/11 04:03:57;;;;;;;0.30;0.30;;;;;;;;;;5059440;28;20562;-52
2021/04/11 04:06:32;;;;;;;0.73;0.73;;;;;;;;;;5059906;28;20197;-53
2021/04/11 04:08:59;;;;;;;0.00;0.00;;;;;;;;;;5060693;28;20418;-55
2021/04/11 04:11:44;;;;;;;0.20;0.20;;;;;;;;;;5066060;28;20631;-53
2021/04/11 04:14:29;;;;;;;0.00;0.00;;;;;;;;;;5057995;28;20179;-51
2021/04/11 04:16:56;;;;;;;0.00;0.00;;;;;;;;;;5059500;28;20312;-53
2021/04/11 04:19:40;;;;;;;0.00;0.00;;;;;;;;;;5057934;28;20248;-54
2021/04/11 04:22:31;;;;;;;1.03;0.90;;;;;;;;;;5061107;28;20174;-54
2021/04/11 04:25:11;;;;;;;0.03;0.03;;;;;;;;;;5057576;28;20224;-53
2021/04/11 04:28:07;;;;;;;0.07;0.07;;;;;;;;;;5055151;28;20186;-54
2021/04/11 04:30:42;;;;;;;1.23;1.13;;;;;;;;;;5019273;28;20195;-54
2021/04/11 04:33:15;;;;;;;0.00;0.00;;;;;;;;;;5058664;28;20739;-55
2021/04/11 04:35:49;;;;;;;0.90;0.90;;;;;;;;;;5059328;28;20231;-51
2021/04/11 04:38:18;;;;;;;0.87;0.87;;;;;;;;;;5059266;28;20178;-56
2021/04/11 04:40:55;;;;;;;0.03;0.03;;;;;;;;;;5059708;28;20854;-52
2021/04/11 04:43:40;;;;;;;0.40;0.40;;;;;;;;;;5059833;28;20193;-52
2021/04/11 04:46:18;;;;;;;0.00;0.00;;;;;;;;;;5054383;28;20190;-56
2021/04/11 04:48:57;;;;;;;3.97;1.07;;;;;;;;;;5059020;28;20201;-53
2021/04/11 04:51:48;;;;;;;0.37;0.37;;;;;;;;;;5057841;28;20213;-54
2021/04/11 04:54:34;;;;;;;0.00;0.00;;;;;;;;;;5061110;28;20209;-53
2021/04/11 04:57:08;;;;;;;0.20;0.20;;;;;;;;;;5060740;28;20333;-51
2021/04/11 04:59:42;;;;;;;1.10;0.30;;;;;;;;;;5066447;28;20235;-53
2021/04/11 05:02:14;;;;;;;0.00;0.00;;;;;;;;;;5053859;28;20193;-54
2021/04/11 05:04:45;;;;;;;0.03;0.03;;;;;;;;;;5060015;28;20194;-54
2021/04/11 05:07:14;;;;;;;1.20;1.03;;;;;;;;;;5059851;28;20190;-54
2021/04/11 05:09:51;;;;;;;0.10;0.10;;;;;;;;;;5059972;28;20217;-53
2021/04/11 05:12:18;;;;;;;0.67;0.67;;;;;;;;;;5060047;28;20193;-55
2021/04/11 05:14:47;;;;;;;0.00;0.00;;;;;;;;;;5059051;28;20194;-55
2021/04/11 05:17:23;;;;;;;1.70;1.60;;;;;;;;;;5057792;28;20238;-54
2021/04/11 05:19:52;;;;;;;0.00;0.00;;;;;;;;;;5057458;28;20216;-52
2021/04/11 05:22:37;;;;;;;0.30;0.30;;;;;;;;;;5055178;28;20199;-52
2021/04/11 05:25:10;;;;;;;1.40;1.17;;;;;;;;;;5059566;28;20178;-54
2021/04/11 05:27:40;;;;;;;0.17;0.17;;;;;;;;;;5058893;28;20190;-54
2021/04/11 05:30:06;;;;;;;0.00;0.00;;;;;;;;;;5059977;28;20182;-54
2021/04/11 05:32:33;;;;;;;0.53;0.53;;;;;;;;;;5058954;28;20222;-54
2021/04/11 05:35:01;;;;;;;2.47;2.27;;;;;;;;;;5059324;28;20212;-54
2021/04/11 05:37:27;;;;;;;0.20;0.20;;;;;;;;;;5059403;28;20203;-54
2021/04/11 05:39:58;;;;;;;0.60;0.60;;;;;;;;;;5058817;28;20611;-53
2021/04/11 05:42:25;;;;;;;0.73;0.73;;;;;;;;;;5059577;28;20182;-54
2021/04/11 05:45:01;;;;;;;5.20;0.73;;;;;;;;;;5059161;28;20493;-51
2021/04/11 05:47:37;;;;;;;0.00;0.00;;;;;;;;;;5059717;28;20220;-55
2021/04/11 05:50:06;;;;;;;0.00;0.00;;;;;;;;;;5060597;28;20717;-53
2021/04/11 05:52:35;;;;;;;0.00;0.00;;;;;;;;;;5062784;28;20397;-56
2021/04/11 05:55:03;;;;;;;0.00;0.00;;;;;;;;;;5060397;28;20263;-53
2021/04/11 05:57:32;;;;;;;0.27;0.27;;;;;;;;;;5062301;28;20206;-54
2021/04/11 06:00:07;;;;;;;0.07;0.07;;;;;;;;;;5062798;28;20178;-55
2021/04/11 06:02:49;;;;;;;0.00;0.00;;;;;;;;;;5062080;28;20250;-54
2021/04/11 06:05:22;;;;;;;0.10;0.10;;;;;;;;;;5062596;28;20233;-53
2021/04/11 06:07:52;;;;;;;0.00;0.00;;;;;;;;;;5065028;28;20312;-53
2021/04/11 06:10:25;;;;;;;0.37;0.37;;;;;;;;;;5059398;28;20186;-52
2021/04/11 06:12:51;;;;;;;0.20;0.20;;;;;;;;;;5063048;28;20257;-54
2021/04/11 06:15:24;;;;;;;0.00;0.00;;;;;;;;;;5063016;28;20194;-53
2021/04/11 06:17:51;;;;;;;0.40;0.40;;;;;;;;;;5062376;28;20256;-53
2021/04/11 06:20:18;;;;;;;0.00;0.00;;;;;;;;;;5063052;28;20512;-51
2021/04/11 06:22:44;;;;;;;0.00;0.00;;;;;;;;;;5063001;28;20634;-54
2021/04/11 06:25:14;;;;;;;0.33;0.33;;;;;;;;;;5063121;28;20201;-55
2021/04/11 06:27:47;;;;;;;0.40;0.30;;;;;;;;;;5062697;28;20189;-54
2021/04/11 06:30:19;;;;;;;0.97;0.93;;;;;;;;;;5062912;28;20194;-54
2021/04/11 06:33:12;;;;;;;0.97;0.87;;;;;;;;;;5064496;28;20283;-54
2021/04/11 06:35:42;;;;;;;0.37;0.37;;;;;;;;;;5038720;28;20210;-52
2021/04/11 06:38:10;;;;;;;0.83;0.83;;;;;;;;;;5062835;28;20190;-54
2021/04/11 06:40:43;;;;;;;1.27;1.17;;;;;;;;;;5062488;28;20183;-52
2021/04/11 06:43:15;;;;;;;2.00;0.63;;;;;;;;;;5056342;28;20201;-54
2021/04/11 06:45:45;;;;;;;0.00;0.00;;;;;;;;;;5062355;28;20191;-54
2021/04/11 06:48:22;;;;;;;0.10;0.10;;;;;;;;;;5061776;28;20214;-55
2021/04/11 06:50:58;;;;;;;0.13;0.13;;;;;;;;;;5063995;28;20194;-53
2021/04/11 06:53:40;;;;;;;0.97;0.97;;;;;;;;;;5062438;28;20201;-54
2021/04/11 06:56:07;;;;;;;0.23;0.23;;;;;;;;;;5062392;28;20538;-54
2021/04/11 06:58:52;;;;;;;0.10;0.10;;;;;;;;;;5061746;28;20179;-51
2021/04/11 07:01:30;;;;;;;0.00;0.00;;;;;;;;;;5061500;28;20186;-54
2021/04/11 07:04:23;;;;;;;0.20;0.20;;;;;;;;;;5061830;28;20222;-55
2021/04/11 07:07:08;;;;;;;5.03;1.83;;;;;;;;;;5061748;28;20183;-51
2021/04/11 07:09:37;;;;;;;0.00;0.00;;;;;;;;;;5061665;28;20197;-53
2021/04/11 07:12:13;;;;;;;0.83;0.57;;;;;;;;;;5061361;28;20195;-52
2021/04/11 07:14:58;;;;;;;1.50;1.03;;;;;;;;;;5058024;28;20252;-60
2021/04/11 07:17:27;;;;;;;0.00;0.00;;;;;;;;;;5061214;28;20234;-60
2021/04/11 07:19:57;;;;;;;1.97;1.87;;;;;;;;;;5061102;28;20245;-60
2021/04/11 07:22:26;;;;;;;0.50;0.40;;;;;;;;;;5061105;28;20187;-60
2021/04/11 07:25:12;;;;;;;1.03;0.57;;;;;;;;;;5060486;28;20187;-60
2021/04/11 07:28:10;;;;;;;0.47;0.30;;;;;;;;;;5061361;28;20205;-60
2021/04/11 07:31:05;;;;;;;0.20;0.20;;;;;;;;;;5025971;28;20202;-60
2021/04/11 07:33:50;;;;;;;0.00;0.00;;;;;;;;;;5063688;28;20195;-60
2021/04/11 07:36:19;;;;;;;0.87;0.30;;;;;;;;;;5060578;28;20222;-60
2021/04/11 07:38:48;;;;;;;0.60;0.60;;;;;;;;;;5061158;28;20221;-60
2021/04/11 07:41:26;;;;;;;3.00;0.87;;;;;;;;;;5061174;28;20215;-60
2021/04/11 07:44:05;;;;;;;0.30;0.30;;;;;;;;;;5060751;28;20211;-61
2021/04/11 07:46:41;;;;;;;0.20;0.20;;;;;;;;;;5060868;28;20217;-61
2021/04/11 07:49:13;;;;;;;2.40;2.17;;;;;;;;;;5061859;28;20271;-61
2021/04/11 07:51:40;;;;;;;2.33;1.93;;;;;;;;;;5064175;28;20378;-61
2021/04/11 07:54:07;;;;;;;0.20;0.20;;;;;;;;;;5061411;28;20275;-61
2021/04/11 07:56:40;;;;;;;0.43;0.43;;;;;;;;;;5060503;28;20214;-60
2021/04/11 07:59:21;;;;;;;0.40;0.40;;;;;;;;;;5060533;28;20244;-61
2021/04/11 08:02:06;;;;;;;1.07;0.87;;;;;;;;;;5060245;28;20198;-60
2021/04/11 08:04:51;;;;;;;1.80;1.70;;;;;;;;;;5060365;28;20255;-55
2021/04/11 08:07:21;;;;;;;0.83;0.83;;;;;;;;;;5062837;28;20195;-54
2021/04/11 08:09:47;;;;;;;0.87;0.87;;;;;;;;;;5062625;28;20305;-56
2021/04/11 08:12:32;;;;;;;1.53;1.43;;;;;;;;;;5060112;28;20751;-54
2021/04/11 08:15:16;;;;;;;2.67;1.07;;;;;;;;;;5055647;28;20267;-54
2021/04/11 08:18:01;;;;;;;0.17;0.17;;;;;;;;;;5059162;28;20272;-55
2021/04/11 08:20:33;;;;;;;0.00;0.00;;;;;;;;;;5059337;28;20303;-55
2021/04/11 08:23:09;;;;;;;2.37;2.23;;;;;;;;;;5060204;28;20191;-52
2021/04/11 08:25:48;;;;;;;0.10;0.10;;;;;;;;;;5054422;28;20194;-51
2021/04/11 08:28:34;;;;;;;0.90;0.83;;;;;;;;;;5056598;28;20544;-50
2021/04/11 08:31:13;;;;;;;1.17;1.07;;;;;;;;;;5057648;28;20665;-52
2021/04/11 08:33:40;;;;;;;0.73;0.63;;;;;;;;;;5060309;28;20201;-53
2021/04/11 08:36:09;;;;;;;0.10;0.10;;;;;;;;;;5059956;28;20274;-53
2021/04/11 08:38:47;;;;;;;0.77;0.77;;;;;;;;;;5060020;28;20194;-53
2021/04/11 08:41:22;;;;;;;0.40;0.23;;;;;;;;;;5059937;28;20220;-50
2021/04/11 08:43:54;;;;;;;0.80;0.60;;;;;;;;;;5058560;28;20229;-53
2021/04/11 08:46:45;;;;;;;0.20;0.20;;;;;;;;;;5055616;28;20730;-50
2021/04/11 08:49:18;;;;;;;0.93;0.43;;;;;;;;;;5059380;28;20191;-53
2021/04/11 08:52:09;;;;;;;1.53;1.43;;;;;;;;;;5058579;28;20218;-53
2021/04/11 08:54:49;;;;;;;0.00;0.00;;;;;;;;;;5059219;28;20194;-50
2021/04/11 08:57:25;;;;;;;1.97;0.87;;;;;;;;;;5057885;28;20271;-53
2021/04/11 09:00:06;;;;;;;0.07;0.07;;;;;;;;;;5059657;28;20192;-53
2021/04/11 09:02:33;;;;;;;1.27;1.17;;;;;;;;;;5054588;28;20292;-52
2021/04/11 09:05:18;;;;;;;12.67;11.93;;;;;;;;;;5058038;28;20663;-50
2021/04/11 09:07:44;;;;;;;2.93;2.63;;;;;;;;;;5059738;28;20194;-53
2021/04/11 09:10:18;;;;;;;1.00;1.00;;;;;;;;;;5060084;28;20218;-53
2021/04/11 09:13:07;;;;;;;3.30;2.43;;;;;;;;;;5060133;28;20198;-53
2021/04/11 09:15:34;;;;;;;0.93;0.93;;;;;;;;;;5058879;28;20181;-50
2021/04/11 09:18:19;;;;;;;0.50;0.50;;;;;;;;;;5059415;28;20245;-53
2021/04/11 09:20:55;;;;;;;0.83;0.83;;;;;;;;;;5058394;28;20186;-51
2021/04/11 09:23:38;;;;;;;0.60;0.60;;;;;;;;;;5059299;28;20193;-54
2021/04/11 09:26:10;;;;;;;0.87;0.87;;;;;;;;;;5059847;28;20198;-52
2021/04/11 09:28:49;;;;;;;0.93;0.87;;;;;;;;;;5058517;28;20198;-53
2021/04/11 09:31:28;;;;;;;3.60;3.33;;;;;;;;;;5058563;28;20226;-53
2021/04/11 09:34:10;;;;;;;1.00;1.00;;;;;;;;;;5059497;28;20630;-54
2021/04/11 09:36:42;;;;;;;2.10;1.70;;;;;;;;;;5063075;28;20223;-54
2021/04/11 09:39:12;;;;;;;6.07;5.87;;;;;;;;;;5062516;28;20197;-48
2021/04/11 09:41:57;;;;;;;5.77;5.57;;;;;;;;;;5065799;28;20186;-52
2021/04/11 09:44:36;;;;;;;0.67;0.67;;;;;;;;;;5063633;28;20197;-55
2021/04/11 09:47:08;;;;;;;0.93;0.93;;;;;;;;;;5062915;28;20194;-55
2021/04/11 09:49:41;;;;;;;0.20;0.20;;;;;;;;;;5063262;28;20359;-49
2021/04/11 09:52:26;;;;;;;1.70;0.97;;;;;;;;;;5062798;28;20912;-53
2021/04/11 09:55:08;;;;;;;2.57;1.17;;;;;;;;;;5064310;28;20202;-54
2021/04/11 09:57:53;;;;;;;0.87;0.67;;;;;;;;;;5063443;28;20226;-54
2021/04/11 10:00:24;;;;;;;1.60;1.50;;;;;;;;;;5063123;28;20626;-54
2021/04/11 10:02:58;;;;;;;2.17;1.60;;;;;;;;;;5065566;28;20210;-55
2021/04/11 10:05:43;;;;;;;3.77;3.63;;;;;;;;;;5066576;28;20247;-54
2021/04/11 10:08:15;;;;;;;7.77;7.47;;;;;;;;;;5062291;28;20221;-54
2021/04/11 10:10:48;;;;;;;25.53;14.30;;;;;;;;;;5063957;28;20183;-53
2021/04/11 10:13:21;;;;;;;4.93;4.73;;;;;;;;;;5066270;28;20222;-53
2021/04/11 10:16:08;;;;;;;0.20;0.20;;;;;;;;;;5064272;28;20243;-52
2021/04/11 10:18:50;;;;;;;0.33;0.33;;;;;;;;;;5064074;28;20211;-47
2021/04/11 10:21:19;;;;;;;3.40;3.30;;;;;;;;;;5063411;28;20187;-53
2021/04/11 10:24:04;;;;;;;1.13;1.03;;;;;;;;;;5064729;28;20182;-50
2021/04/11 10:26:37;;;;;;;0.03;0.03;;;;;;;;;;5063930;28;20190;-54
2021/04/11 10:29:10;;;;;;;0.40;0.40;;;;;;;;;;5062773;28;20242;-54
2021/04/11 10:31:52;;;;;;;0.77;0.77;;;;;;;;;;5063821;28;20354;-52
2021/04/11 10:34:18;;;;;;;1.70;1.60;;;;;;;;;;5061915;28;20190;-53
2021/04/11 10:36:56;;;;;;;2.20;0.87;;;;;;;;;;5061536;28;20206;-52
2021/04/11 10:39:37;;;;;;;0.67;0.67;;;;;;;;;;5061949;28;20212;-55
2021/04/11 10:42:07;;;;;;;0.00;0.00;;;;;;;;;;5063012;28;20185;-54
2021/04/11 10:44:33;;;;;;;0.00;0.00;;;;;;;;;;5061382;28;20225;-55
2021/04/11 10:47:09;;;;;;;0.00;0.00;;;;;;;;;;5059660;28;20612;-56
2021/04/11 10:49:39;;;;;;;1.40;1.30;;;;;;;;;;5061589;28;20224;-52
2021/04/11 10:52:12;;;;;;;0.00;0.00;;;;;;;;;;5061356;28;20262;-52
2021/04/11 13:30:47;;;;;;;0.73;0.63;;;;;;;;;;5112026;27;20269;-60
2021/04/11 13:33:14;;;;;;;2.73;0.73;;;;;;;;;;5098869;28;20276;-60
2021/04/11 13:35:44;;;;;;;1.27;0.90;;;;;;;;;;5097763;28;21015;-60
2021/04/11 13:38:21;;;;;;;2.10;0.83;;;;;;;;;;5097904;28;20254;-61
2021/04/11 13:40:48;;;;;;;1.47;1.37;;;;;;;;;;5097736;28;20195;-61
2021/04/11 13:43:47;;;;;;;0.43;0.27;;;;;;;;;;5097357;28;20202;-60
2021/04/11 13:46:14;;;;;;;1.07;1.07;;;;;;;;;;5052297;28;20297;-60
2021/04/11 13:48:41;;;;;;;0.77;0.77;;;;;;;;;;5097054;28;20205;-60
2021/04/11 13:51:08;;;;;;;0.00;0.00;;;;;;;;;;5097811;28;20186;-61
2021/04/11 13:53:35;;;;;;;1.50;1.07;;;;;;;;;;5094288;28;20549;-61
2021/04/11 13:56:12;;;;;;;0.13;0.13;;;;;;;;;;5097714;28;20182;-61
2021/04/11 13:58:58;;;;;;;0.00;0.00;;;;;;;;;;5095232;28;20204;-60
2021/04/11 14:01:42;;;;;;;1.40;1.30;;;;;;;;;;5097196;28;20300;-60
2021/04/11 14:04:15;;;;;;;3.27;1.80;;;;;;;;;;5093069;28;20185;-61
2021/04/11 14:07:00;;;;;;;0.50;0.50;;;;;;;;;;5096936;28;20196;-61
2021/04/11 14:09:27;;;;;;;2.10;1.90;;;;;;;;;;5092385;28;20319;-61
2021/04/11 14:12:14;;;;;;;0.10;0.10;;;;;;;;;;5093666;28;20674;-61
2021/04/11 14:14:44;;;;;;;0.30;0.27;;;;;;;;;;5081576;28;20209;-61
2021/04/11 14:17:10;;;;;;;0.50;0.50;;;;;;;;;;5097308;28;20209;-61
2021/04/11 14:19:50;;;;;;;3.00;1.60;;;;;;;;;;5096759;28;20217;-61
2021/04/11 14:22:28;;;;;;;7.50;1.70;;;;;;;;;;5097022;28;20208;-61
2021/04/11 14:25:15;;;;;;;0.77;0.77;;;;;;;;;;5097006;28;20186;-61
2021/04/11 14:27:50;;;;;;;1.30;0.80;;;;;;;;;;5083297;28;20254;-62
2021/04/11 14:30:53;;;;;;;0.40;0.40;;;;;;;;;;5096582;28;20247;-60
2021/04/11 14:33:35;;;;;;;0.77;0.63;;;;;;;;;;5013702;28;20184;-61
2021/04/11 14:36:02;;;;;;;0.20;0.20;;;;;;;;;;5083869;28;20292;-61
2021/04/11 14:38:31;;;;;;;0.37;0.37;;;;;;;;;;5096562;28;20193;-61
2021/04/11 14:41:06;;;;;;;0.00;0.00;;;;;;;;;;5088525;28;20189;-61
2021/04/11 14:43:40;;;;;;;0.00;0.00;;;;;;;;;;5082829;28;20197;-61
2021/04/11 14:46:10;;;;;;;0.80;0.80;;;;;;;;;;5082656;28;20193;-61
2021/04/11 14:48:37;;;;;;;0.83;0.27;;;;;;;;;;5080704;28;20324;-60
2021/04/11 14:51:19;;;;;;;1.33;0.80;;;;;;;;;;5082458;28;20212;-61
2021/04/11 14:53:46;;;;;;;1.23;1.13;;;;;;;;;;5082628;28;20605;-61
2021/04/11 14:56:17;;;;;;;1.60;1.00;;;;;;;;;;5082495;28;20275;-60
2021/04/11 14:59:03;;;;;;;0.27;0.27;;;;;;;;;;5082858;28;20209;-60
2021/04/11 15:01:51;;;;;;;1.90;1.50;;;;;;;;;;5078315;28;20187;-61
2021/04/11 15:04:24;;;;;;;1.13;0.97;;;;;;;;;;5082505;28;20188;-60
2021/04/11 15:07:03;;;;;;;1.80;1.30;;;;;;;;;;5082810;28;20185;-61
2021/04/11 15:09:32;;;;;;;0.43;0.40;;;;;;;;;;5079469;28;20205;-62
2021/04/11 15:12:03;;;;;;;5.37;1.43;;;;;;;;;;5082666;28;20708;-61
2021/04/11 15:14:48;;;;;;;3.40;1.13;;;;;;;;;;5082264;28;20187;-60
2021/04/11 15:17:20;;;;;;;5.93;1.03;;;;;;;;;;5082502;28;20201;-60
2021/04/11 15:19:52;;;;;;;2.50;0.93;;;;;;;;;;5082230;28;20721;-61
2021/04/11 15:22:28;;;;;;;2.37;1.17;;;;;;;;;;5082716;28;20218;-61
2021/04/11 15:25:03;;;;;;;3.63;1.20;;;;;;;;;;5078234;28;20644;-60
2021/04/11 15:27:47;;;;;;;0.53;0.53;;;;;;;;;;5076304;28;20689;-61
2021/04/11 15:30:19;;;;;;;1.40;0.50;;;;;;;;;;5082569;28;20240;-60
2021/04/11 15:32:53;;;;;;;0.00;0.00;;;;;;;;;;5081944;28;20241;-61
2021/04/11 15:35:25;;;;;;;0.43;0.43;;;;;;;;;;5081567;28;20277;-61
2021/04/11 15:37:58;;;;;;;0.17;0.10;;;;;;;;;;5081936;28;20185;-61
2021/04/11 15:40:29;;;;;;;1.57;1.47;;;;;;;;;;5082422;28;20200;-60
2021/04/11 15:43:15;;;;;;;0.00;0.00;;;;;;;;;;5082093;28;20690;-60
2021/04/11 15:45:48;;;;;;;0.00;0.00;;;;;;;;;;5077079;28;20310;-61
2021/04/11 15:48:17;;;;;;;0.23;0.23;;;;;;;;;;5081618;28;20201;-61
2021/04/11 15:51:00;;;;;;;2.33;2.13;;;;;;;;;;5079476;28;20286;-60
2021/04/11 15:53:27;;;;;;;0.70;0.70;;;;;;;;;;5079219;28;20193;-61
2021/04/11 15:56:12;;;;;;;1.10;0.93;;;;;;;;;;5081636;28;20523;-62
2021/04/11 15:58:38;;;;;;;0.80;0.57;;;;;;;;;;5080204;28;20193;-61
2021/04/11 16:01:05;;;;;;;0.30;0.30;;;;;;;;;;5081150;28;20699;-61
2021/04/11 16:03:35;;;;;;;39.50;1.50;;;;;;;;;;5081939;28;20194;-60
2021/04/11 16:06:14;;;;;;;0.10;0.10;;;;;;;;;;5081093;28;20189;-61
2021/04/11 16:09:00;;;;;;;0.83;0.53;;;;;;;;;;5080807;28;20210;-61
2021/04/11 16:11:43;;;;;;;0.00;0.00;;;;;;;;;;5081485;28;20197;-60
2021/04/11 16:14:32;;;;;;;0.17;0.17;;;;;;;;;;5071476;28;20182;-60
2021/04/11 16:17:22;;;;;;;1.20;1.10;;;;;;;;;;5070469;28;20341;-60
2021/04/11 16:20:07;;;;;;;0.30;0.30;;;;;;;;;;5033299;28;20217;-60
2021/04/11 16:22:37;;;;;;;0.33;0.33;;;;;;;;;;5075232;28;20905;-61
2021/04/11 16:25:13;;;;;;;0.10;0.10;;;;;;;;;;5080377;28;20277;-60
2021/04/11 16:27:42;;;;;;;0.53;0.30;;;;;;;;;;5078507;28;20185;-60
2021/04/11 16:30:15;;;;;;;0.73;0.50;;;;;;;;;;5079625;28;20774;-60
2021/04/11 16:33:01;;;;;;;15.27;1.90;;;;;;;;;;5080369;28;21029;-60
2021/04/11 16:35:40;;;;;;;0.20;0.20;;;;;;;;;;5072445;28;20178;-60
2021/04/11 16:38:09;;;;;;;0.77;0.73;;;;;;;;;;5076566;28;20175;-61
2021/04/11 16:40:54;;;;;;;0.43;0.30;;;;;;;;;;5078609;28;20239;-60
2021/04/11 16:43:28;;;;;;;1.33;1.23;;;;;;;;;;5080191;28;20186;-60
2021/04/11 16:45:58;;;;;;;0.77;0.70;;;;;;;;;;5080943;28;20861;-60
2021/04/11 16:48:28;;;;;;;0.67;0.60;;;;;;;;;;5080877;28;20273;-60
2021/04/11 16:51:04;;;;;;;0.90;0.90;;;;;;;;;;5080869;28;20186;-60
2021/04/11 16:53:40;;;;;;;0.17;0.17;;;;;;;;;;5075395;28;20182;-60
2021/04/11 16:56:10;;;;;;;1.50;1.30;;;;;;;;;;5080993;28;20201;-61
2021/04/11 16:58:43;;;;;;;0.60;0.60;;;;;;;;;;5080800;28;20194;-61
2021/04/11 17:01:11;;;;;;;0.00;0.00;;;;;;;;;;5080454;28;20657;-60
2021/04/11 17:03:45;;;;;;;1.27;1.13;;;;;;;;;;5081034;28;20320;-61
2021/04/11 17:06:15;;;;;;;0.23;0.10;;;;;;;;;;5080780;28;20281;-60
2021/04/11 17:08:44;;;;;;;0.00;0.00;;;;;;;;;;5080687;28;20212;-60
2021/04/11 17:11:19;;;;;;;1.40;1.00;;;;;;;;;;5080025;28;20556;-61
2021/04/11 17:13:51;;;;;;;0.00;0.00;;;;;;;;;;5078894;28;20796;-60
2021/04/11 17:16:42;;;;;;;0.97;0.60;;;;;;;;;;5067181;28;20204;-60
2021/04/11 17:19:21;;;;;;;0.20;0.20;;;;;;;;;;5061539;28;20190;-60
2021/04/11 17:21:50;;;;;;;0.13;0.13;;;;;;;;;;5068837;28;20180;-61
2021/04/11 17:24:27;;;;;;;0.50;0.50;;;;;;;;;;5069196;28;20193;-60
2021/04/11 17:27:12;;;;;;;0.33;0.33;;;;;;;;;;5069818;28;20201;-61
2021/04/11 17:29:40;;;;;;;0.00;0.00;;;;;;;;;;5070523;28;20715;-60
2021/04/11 17:32:19;;;;;;;0.27;0.27;;;;;;;;;;5070268;28;20193;-61
2021/04/11 17:34:55;;;;;;;1.57;0.50;;;;;;;;;;5072639;28;20206;-61
2021/04/11 17:37:49;;;;;;;0.00;0.00;;;;;;;;;;5068888;28;20186;-60
2021/04/11 17:40:18;;;;;;;1.87;1.77;;;;;;;;;;5071182;28;20205;-60
2021/04/11 17:42:48;;;;;;;0.33;0.33;;;;;;;;;;5073734;28;20182;-60
2021/04/11 17:45:29;;;;;;;0.00;0.00;;;;;;;;;;5070689;28;20199;-60
2021/04/11 17:48:07;;;;;;;0.60;0.50;;;;;;;;;;5071560;28;20736;-60
2021/04/11 17:50:37;;;;;;;0.30;0.30;;;;;;;;;;5070616;28;20210;-60
2021/04/11 17:53:22;;;;;;;1.33;1.17;;;;;;;;;;5070221;28;20183;-60
2021/04/11 17:56:12;;;;;;;1.23;0.90;;;;;;;;;;5073338;28;20665;-60
2021/04/11 17:58:57;;;;;;;4.70;0.30;;;;;;;;;;5071309;28;20194;-60